Kem'- Port, Russia
Current Conditions -  °F | °C
As of 2:20 PM on Thursday 27 Nov 2014 (Local Time) from EFKS Reporting Station
Moderate Fog Moderate Fog  
Wind Chill: 23°   Ceiling: 200
Heat Index: 23°   Visibility: 0.18mi
Dew Point: 23°   Wind: 2mph
Humidity: 100%   Direction: 170°S
Pressure: 30.18"   Gusts: NA
Location:  64.98°N, 34.8°E
Report Text: EFKS 271120Z 17002KT 0300 R12/0750 FZFG VV002 M05/M05 Q1022
Loading
Personal Weather Stations






























Interactive Weather Map New forecast layout! Learn more

10-Day Weather Forecast

Advertisements
Track Severe Weather on mobile